createdAt,value
2022-09-29T00:00:14.541Z,5.91
2022-09-29T00:02:41.097Z,5.89
2022-09-29T00:05:08.155Z,5.64
2022-09-29T00:07:34.539Z,5.77
2022-09-29T00:10:01.060Z,5.86
2022-09-29T00:12:27.393Z,5.59
2022-09-29T00:14:53.804Z,5.51
2022-09-29T00:17:20.150Z,5.34
2022-09-29T00:19:46.750Z,5.70
2022-09-29T00:22:13.098Z,5.71
2022-09-29T00:24:39.489Z,5.36
2022-09-29T00:27:05.862Z,5.53
2022-09-29T00:29:32.332Z,5.39
2022-09-29T00:31:58.719Z,5.70
2022-09-29T00:34:25.131Z,5.50
2022-09-29T00:36:51.461Z,5.43
2022-09-29T00:39:17.831Z,5.63
2022-09-29T00:41:44.169Z,5.44
2022-09-29T00:44:13.572Z,5.41
2022-09-29T00:47:01.516Z,5.69
2022-09-29T00:49:43.367Z,5.41
2022-09-29T00:52:32.400Z,5.38
2022-09-29T00:55:05.176Z,5.42
2022-09-29T00:57:39.455Z,5.44
2022-09-29T01:00:09.917Z,5.49
2022-09-29T01:02:42.701Z,5.47
2022-09-29T01:05:16.189Z,5.40
2022-09-29T01:07:44.511Z,5.63
2022-09-29T01:10:13.172Z,5.50
2022-09-29T01:12:39.556Z,5.47
2022-09-29T01:15:06.446Z,5.50
2022-09-29T01:17:32.865Z,5.49
2022-09-29T01:20:15.787Z,5.38
2022-09-29T01:22:52.888Z,5.50
2022-09-29T01:25:49.932Z,5.30
2022-09-29T01:28:28.056Z,5.17
2022-09-29T01:31:50.320Z,5.39
2022-09-29T01:34:32.438Z,5.14
2022-09-29T01:37:04.676Z,5.21
2022-09-29T01:39:59.527Z,5.21
2022-09-29T01:42:32.412Z,5.27
2022-09-29T01:45:15.750Z,5.01
2022-09-29T01:47:56.360Z,5.49
2022-09-29T01:50:35.733Z,5.08
2022-09-29T01:53:09.125Z,5.15
2022-09-29T01:55:41.265Z,5.13
2022-09-29T01:58:13.385Z,5.45
2022-09-29T02:00:45.676Z,5.56
2022-09-29T02:03:26.080Z,5.01
2022-09-29T02:05:56.654Z,5.19
2022-09-29T02:08:26.215Z,5.08
2022-09-29T02:11:03.400Z,5.06
2022-09-29T02:13:43.784Z,5.04
2022-09-29T02:16:14.633Z,5.09
2022-09-29T02:18:49.317Z,4.99
2022-09-29T02:21:15.704Z,4.82
2022-09-29T02:23:42.204Z,5.14
2022-09-29T02:26:10.626Z,4.95
2022-09-29T02:28:37.493Z,4.88
2022-09-29T02:31:04.119Z,4.87
2022-09-29T02:33:30.542Z,4.84
2022-09-29T02:36:12.879Z,4.85
2022-09-29T02:39:01.455Z,5.06
2022-09-29T02:41:55.292Z,5.42
2022-09-29T02:44:36.688Z,5.34
2022-09-29T02:47:12.224Z,5.35
2022-09-29T02:49:57.461Z,5.19
2022-09-29T02:52:38.158Z,5.10
2022-09-29T02:55:20.481Z,5.29
2022-09-29T02:57:56.498Z,5.15
2022-09-29T03:00:23.858Z,5.05
2022-09-29T03:02:50.187Z,5.11
2022-09-29T03:05:20.581Z,5.25
2022-09-29T03:07:47.274Z,5.32
2022-09-29T03:10:16.574Z,5.05
2022-09-29T03:12:42.937Z,4.89
2022-09-29T03:15:12.573Z,4.90
2022-09-29T03:17:40.127Z,4.92
2022-09-29T03:20:07.512Z,5.32
2022-09-29T03:22:34.300Z,5.18
2022-09-29T03:25:00.679Z,4.93
2022-09-29T03:27:27.015Z,4.75
2022-09-29T03:29:53.387Z,4.93
2022-09-29T03:32:19.721Z,4.96
2022-09-29T03:34:46.248Z,4.84
2022-09-29T03:37:12.782Z,4.89
2022-09-29T03:39:39.384Z,4.91
2022-09-29T03:42:05.778Z,4.72
2022-09-29T03:44:32.548Z,4.78
2022-09-29T03:46:58.889Z,4.73
2022-09-29T03:49:25.282Z,4.68
2022-09-29T03:51:52.600Z,4.87
2022-09-29T03:54:19.125Z,4.93
2022-09-29T03:56:45.453Z,4.78
2022-09-29T03:59:12.337Z,4.87
2022-09-29T04:01:38.858Z,5.17
2022-09-29T04:04:06.919Z,5.21
2022-09-29T04:06:33.922Z,5.47
2022-09-29T04:09:00.399Z,5.62
2022-09-29T04:11:26.743Z,5.68
2022-09-29T04:13:53.447Z,5.36
2022-09-29T04:16:19.851Z,5.46
2022-09-29T04:18:46.563Z,5.68
2022-09-29T04:21:12.911Z,5.73
2022-09-29T04:23:39.265Z,5.72
2022-09-29T04:26:05.856Z,5.48
2022-09-29T04:28:33.105Z,5.47
2022-09-29T04:30:59.480Z,5.70
2022-09-29T04:33:25.810Z,5.49
2022-09-29T04:35:52.308Z,5.50
2022-09-29T04:38:18.653Z,5.68
2022-09-29T04:40:45.264Z,5.69
2022-09-29T04:43:11.697Z,5.83
2022-09-29T04:45:38.145Z,5.69
2022-09-29T04:48:04.793Z,5.97
2022-09-29T04:50:32.087Z,5.72
2022-09-29T04:52:59.746Z,5.86
2022-09-29T04:55:26.640Z,5.90
2022-09-29T04:57:53.362Z,5.96
2022-09-29T05:00:20.068Z,5.79
2022-09-29T05:02:49.682Z,6.01
2022-09-29T05:05:17.719Z,5.75
2022-09-29T05:07:44.558Z,5.89
2022-09-29T05:10:10.965Z,5.93
2022-09-29T05:12:38.021Z,5.80
2022-09-29T05:15:06.187Z,5.71
2022-09-29T05:17:32.621Z,5.77
2022-09-29T05:19:59.140Z,5.69
2022-09-29T05:22:26.015Z,5.67
2022-09-29T05:24:53.140Z,5.54
2022-09-29T05:27:19.648Z,5.68
2022-09-29T05:29:46.281Z,5.72
2022-09-29T05:32:12.640Z,5.78
2022-09-29T05:34:39.482Z,5.79
2022-09-29T05:37:05.832Z,5.83
2022-09-29T05:39:34.674Z,5.78
2022-09-29T05:42:02.414Z,5.82
2022-09-29T05:44:29.346Z,5.95
2022-09-29T05:46:55.682Z,6.09
2022-09-29T05:49:23.047Z,5.95
2022-09-29T05:51:49.495Z,6.08
2022-09-29T05:54:15.890Z,6.15
2022-09-29T05:56:45.285Z,6.05
2022-09-29T05:59:12.350Z,5.98
2022-09-29T06:01:39.125Z,6.18
2022-09-29T06:04:05.582Z,6.10
2022-09-29T06:06:32.055Z,5.97
2022-09-29T06:08:59.457Z,6.14
2022-09-29T06:11:28.547Z,6.05
2022-09-29T06:13:55.979Z,5.98
2022-09-29T06:16:25.822Z,5.97
2022-09-29T06:18:53.041Z,6.11
2022-09-29T06:21:24.399Z,6.00
2022-09-29T06:23:52.376Z,5.95
2022-09-29T06:26:23.613Z,6.11
2022-09-29T06:28:50.957Z,5.98
2022-09-29T06:31:21.014Z,6.09
2022-09-29T06:33:48.066Z,6.16
2022-09-29T06:36:43.251Z,6.00
2022-09-29T06:39:12.355Z,6.38
2022-09-29T06:41:38.805Z,6.31
2022-09-29T06:44:05.181Z,6.21
2022-09-29T06:46:31.564Z,6.05
2022-09-29T06:48:58.120Z,6.07
2022-09-29T06:51:35.316Z,6.24
2022-09-29T06:54:11.619Z,6.25
2022-09-29T06:56:38.392Z,6.25
2022-09-29T06:59:04.877Z,6.29
2022-09-29T07:01:31.348Z,6.31
2022-09-29T07:04:00.714Z,6.42
2022-09-29T07:06:29.454Z,6.28
2022-09-29T07:08:57.212Z,6.32
2022-09-29T07:11:23.792Z,6.18
2022-09-29T07:13:54.452Z,6.35
2022-09-29T07:16:27.956Z,6.43
2022-09-29T07:18:54.464Z,6.22
2022-09-29T07:21:22.017Z,6.40
2022-09-29T07:23:48.928Z,6.46
2022-09-29T07:26:16.993Z,6.50
2022-09-29T07:28:44.421Z,6.42
2022-09-29T07:31:15.582Z,6.49
2022-09-29T07:33:47.206Z,6.37
2022-09-29T07:36:15.159Z,6.55
2022-09-29T07:38:41.999Z,6.64
2022-09-29T07:41:11.287Z,6.67
2022-09-29T07:43:38.576Z,6.98
2022-09-29T07:46:05.690Z,6.95
2022-09-29T07:48:33.706Z,6.96
2022-09-29T07:51:08.887Z,7.14
2022-09-29T07:53:36.969Z,7.16
2022-09-29T07:56:05.966Z,7.13
2022-09-29T07:58:33.373Z,7.11
2022-09-29T08:01:01.435Z,7.07
2022-09-29T08:03:29.987Z,7.08
2022-09-29T08:05:57.894Z,7.08
2022-09-29T08:08:24.390Z,7.10
2022-09-29T08:10:53.854Z,7.11
2022-09-29T08:13:20.628Z,7.27
2022-09-29T08:15:47.143Z,7.29
2022-09-29T08:18:13.577Z,7.45
2022-09-29T08:20:39.953Z,7.53
2022-09-29T08:23:06.878Z,7.70
2022-09-29T08:25:33.836Z,7.69
2022-09-29T08:28:00.414Z,7.65
2022-09-29T08:30:26.791Z,7.58
2022-09-29T08:32:53.941Z,7.86
2022-09-29T08:35:21.028Z,7.84
2022-09-29T08:37:47.818Z,7.71
2022-09-29T08:40:14.562Z,7.67
2022-09-29T08:42:50.544Z,7.99
2022-09-29T08:45:29.016Z,8.05
2022-09-29T08:48:10.926Z,8.03
2022-09-29T08:50:56.305Z,8.27
2022-09-29T08:53:29.109Z,8.52
2022-09-29T08:56:02.214Z,8.41
2022-09-29T08:58:28.808Z,8.51
2022-09-29T09:01:19.460Z,8.86
2022-09-29T09:04:12.319Z,8.58
2022-09-29T09:07:03.011Z,8.78
2022-09-29T09:09:47.072Z,8.83
2022-09-29T09:12:40.519Z,8.92
2022-09-29T09:15:23.655Z,8.71
2022-09-29T09:18:04.223Z,8.96
2022-09-29T09:20:36.894Z,9.06
2022-09-29T09:23:25.544Z,9.13
2022-09-29T09:25:56.992Z,8.95
2022-09-29T09:28:53.227Z,9.18
2022-09-29T09:31:33.656Z,9.29
2022-09-29T09:34:15.889Z,9.36
2022-09-29T09:36:50.587Z,9.50
2022-09-29T09:39:34.829Z,9.54
2022-09-29T09:42:06.879Z,9.62
2022-09-29T09:44:37.194Z,9.78
2022-09-29T09:47:21.073Z,9.75
2022-09-29T09:49:52.293Z,9.66
2022-09-29T09:52:29.353Z,9.65
2022-09-29T09:55:04.674Z,9.76
2022-09-29T09:57:49.308Z,9.68
2022-09-29T10:00:21.956Z,9.73
2022-09-29T10:02:50.843Z,9.79
2022-09-29T10:05:20.808Z,9.90
2022-09-29T10:07:51.073Z,9.91
2022-09-29T10:10:26.457Z,9.60
2022-09-29T10:13:01.873Z,9.56
2022-09-29T10:15:33.635Z,9.49
2022-09-29T10:18:38.543Z,9.58
2022-09-29T10:21:18.620Z,9.65
2022-09-29T10:24:01.886Z,9.60
2022-09-29T10:26:44.585Z,9.74
2022-09-29T10:29:23.620Z,9.63
2022-09-29T10:32:36.545Z,9.82
2022-09-29T10:35:25.140Z,9.67
2022-09-29T10:38:01.737Z,9.77
2022-09-29T10:40:28.919Z,9.60
2022-09-29T10:42:56.791Z,9.77
2022-09-29T10:45:24.718Z,9.77
2022-09-29T10:47:57.016Z,9.79
2022-09-29T10:50:35.091Z,9.84
2022-09-29T10:53:15.364Z,9.89
2022-09-29T10:55:51.911Z,9.87
2022-09-29T10:58:44.747Z,9.96
2022-09-29T11:01:18.044Z,9.90
2022-09-29T11:04:06.970Z,9.90
2022-09-29T11:06:38.439Z,10.02
2022-09-29T11:09:27.072Z,10.09
2022-09-29T11:12:00.731Z,10.00
2022-09-29T11:14:38.143Z,10.02
2022-09-29T11:17:27.678Z,10.10
2022-09-29T11:20:06.978Z,10.20
2022-09-29T11:23:07.516Z,10.34
2022-09-29T11:25:57.771Z,10.47
2022-09-29T11:28:45.972Z,10.63
2022-09-29T11:31:32.596Z,10.44
2022-09-29T11:34:32.961Z,10.56
2022-09-29T11:37:36.108Z,10.59
2022-09-29T11:40:39.420Z,10.61
2022-09-29T11:43:20.962Z,10.69
2022-09-29T11:46:07.332Z,10.80
2022-09-29T11:48:43.235Z,10.94
2022-09-29T11:51:52.369Z,10.77
2022-09-29T11:54:37.561Z,10.71
2022-09-29T11:57:29.432Z,10.72
2022-09-29T12:00:15.921Z,10.63
2022-09-29T12:03:23.917Z,10.76
2022-09-29T12:05:56.672Z,10.78
2022-09-29T12:08:38.316Z,10.65
2022-09-29T12:11:40.535Z,10.80
2022-09-29T12:14:16.016Z,10.85
2022-09-29T12:16:53.034Z,10.90
2022-09-29T12:19:28.105Z,10.77
2022-09-29T12:21:57.242Z,10.65
2022-09-29T12:24:35.470Z,10.78
2022-09-29T12:27:12.296Z,10.64
2022-09-29T12:29:48.140Z,10.62
2022-09-29T12:32:28.745Z,10.85
2022-09-29T12:35:06.630Z,10.95
2022-09-29T12:37:40.679Z,10.94
2022-09-29T12:40:37.865Z,10.95
2022-09-29T12:43:30.411Z,10.96
2022-09-29T12:46:05.069Z,11.17
2022-09-29T12:48:37.724Z,11.08
2022-09-29T12:51:27.968Z,11.04
2022-09-29T12:54:08.056Z,11.00
2022-09-29T12:56:45.456Z,10.97
2022-09-29T12:59:29.436Z,10.79
2022-09-29T13:01:57.612Z,10.68
2022-09-29T13:04:30.161Z,10.55
2022-09-29T13:07:11.193Z,10.69
2022-09-29T13:09:47.370Z,10.61
2022-09-29T13:12:19.785Z,10.59
2022-09-29T13:15:18.372Z,10.64
2022-09-29T13:18:17.333Z,10.58
2022-09-29T13:21:22.648Z,10.58
2022-09-29T13:24:13.864Z,10.57
2022-09-29T13:26:59.157Z,10.66
2022-09-29T13:29:28.489Z,10.56
2022-09-29T13:31:57.415Z,10.61
2022-09-29T13:34:31.978Z,10.59
2022-09-29T13:37:07.483Z,10.50
2022-09-29T13:39:35.141Z,10.91
2022-09-29T13:42:30.649Z,10.90
2022-09-29T13:45:27.996Z,10.84
2022-09-29T13:48:01.871Z,10.95
2022-09-29T13:50:48.911Z,10.96
2022-09-29T13:53:33.388Z,10.84
2022-09-29T13:56:02.963Z,10.77
2022-09-29T13:58:50.957Z,10.83
2022-09-29T14:01:32.995Z,10.86
2022-09-29T14:04:38.476Z,10.90
2022-09-29T14:07:06.294Z,10.81
2022-09-29T14:09:44.894Z,10.97
2022-09-29T14:12:26.084Z,10.74
2022-09-29T14:14:57.114Z,10.96
2022-09-29T14:17:37.249Z,10.94
2022-09-29T14:20:16.858Z,10.90
2022-09-29T14:22:43.205Z,10.97
2022-09-29T14:25:13.850Z,11.03
2022-09-29T14:28:01.229Z,10.97
2022-09-29T14:30:35.231Z,10.98
2022-09-29T14:33:20.000Z,11.12
2022-09-29T14:36:03.827Z,11.08
2022-09-29T14:38:44.706Z,11.16
2022-09-29T14:41:11.022Z,11.15
2022-09-29T14:43:42.226Z,11.12
2022-09-29T14:47:04.760Z,11.06
2022-09-29T14:50:25.116Z,11.04
2022-09-29T14:53:09.404Z,10.95
2022-09-29T14:55:38.793Z,10.89
2022-09-29T14:58:23.935Z,10.97
2022-09-29T15:01:09.620Z,10.82
2022-09-29T15:03:44.951Z,10.89
2022-09-29T15:06:21.435Z,10.93
2022-09-29T15:09:01.234Z,10.78
2022-09-29T15:11:38.118Z,10.71
2022-09-29T15:14:21.748Z,10.61
2022-09-29T15:17:08.413Z,10.64
2022-09-29T15:19:53.151Z,10.65
2022-09-29T15:22:38.591Z,10.61
2022-09-29T15:25:29.401Z,10.60
2022-09-29T15:28:18.154Z,10.53
2022-09-29T15:30:48.964Z,10.54
2022-09-29T15:33:24.676Z,10.32
2022-09-29T15:35:58.839Z,10.38
2022-09-29T15:38:25.156Z,10.40
2022-09-29T15:41:03.585Z,10.52
2022-09-29T15:43:41.065Z,10.67
2022-09-29T15:46:18.252Z,10.67
2022-09-29T15:49:10.208Z,10.60
2022-09-29T15:51:37.357Z,10.61
2022-09-29T15:54:05.391Z,10.66
2022-09-29T15:56:32.509Z,10.56
2022-09-29T15:58:59.762Z,10.51
2022-09-29T16:01:26.425Z,10.49
2022-09-29T16:03:57.727Z,10.39
2022-09-29T16:06:39.497Z,10.47
2022-09-29T16:09:17.305Z,10.64
2022-09-29T16:11:43.816Z,10.72
2022-09-29T16:14:27.052Z,10.68
2022-09-29T16:16:57.576Z,10.58
2022-09-29T16:19:30.567Z,10.51
2022-09-29T16:22:03.001Z,10.55
2022-09-29T16:24:32.278Z,10.46
2022-09-29T16:27:00.045Z,10.31
2022-09-29T16:29:31.535Z,10.43
2022-09-29T16:32:32.805Z,10.49
2022-09-29T16:35:39.968Z,10.66
2022-09-29T16:38:29.489Z,10.50
2022-09-29T16:40:56.853Z,10.58
2022-09-29T16:43:27.728Z,10.40
2022-09-29T16:45:56.956Z,10.47
2022-09-29T16:48:25.709Z,10.36
2022-09-29T16:51:37.818Z,10.44
2022-09-29T16:54:01.061Z,10.44
2022-09-29T16:56:35.426Z,10.35
2022-09-29T16:59:22.253Z,10.39
2022-09-29T17:01:48.882Z,10.41
2022-09-29T17:04:15.549Z,10.43
2022-09-29T17:06:47.338Z,10.49
2022-09-29T17:09:23.475Z,10.41
2022-09-29T17:11:50.049Z,10.42
2022-09-29T17:14:18.363Z,10.41
2022-09-29T17:16:45.770Z,10.42
2022-09-29T17:19:12.457Z,10.42
2022-09-29T17:21:38.958Z,10.45
2022-09-29T17:24:05.473Z,10.47
2022-09-29T17:27:00.179Z,10.46
2022-09-29T17:29:26.623Z,10.46
2022-09-29T17:31:53.218Z,10.44
2022-09-29T17:34:22.110Z,10.45
2022-09-29T17:36:49.301Z,10.49
2022-09-29T17:39:16.249Z,10.43
2022-09-29T17:41:45.861Z,10.38
2022-09-29T17:44:13.107Z,10.39
2022-09-29T17:46:39.619Z,10.34
2022-09-29T17:49:11.855Z,10.29
2022-09-29T17:51:38.458Z,10.28
2022-09-29T17:54:05.146Z,10.12
2022-09-29T17:56:37.352Z,9.97
2022-09-29T17:59:05.763Z,9.85
2022-09-29T18:01:34.379Z,9.93
2022-09-29T18:04:02.048Z,9.93
2022-09-29T18:06:28.855Z,10.18
2022-09-29T18:08:57.108Z,10.09
2022-09-29T18:11:25.869Z,9.96
2022-09-29T18:13:52.770Z,10.07
2022-09-29T18:16:22.466Z,10.24
2022-09-29T18:18:49.573Z,10.37
2022-09-29T18:21:19.524Z,10.03
2022-09-29T18:23:46.851Z,10.06
2022-09-29T18:26:14.685Z,10.22
2022-09-29T18:28:41.163Z,10.41
2022-09-29T18:31:20.026Z,10.34
2022-09-29T18:33:46.529Z,10.47
2022-09-29T18:36:12.893Z,10.40
2022-09-29T18:38:39.379Z,10.29
2022-09-29T18:41:10.037Z,10.32
2022-09-29T18:43:37.372Z,10.42
2022-09-29T18:46:03.838Z,10.32
2022-09-29T18:48:30.357Z,10.38
2022-09-29T18:50:56.767Z,10.47
2022-09-29T18:53:23.839Z,10.18
2022-09-29T18:55:55.889Z,10.23
2022-09-29T18:58:22.704Z,10.24
2022-09-29T19:00:55.416Z,10.26
2022-09-29T19:03:27.120Z,10.25
2022-09-29T19:05:54.691Z,10.29
2022-09-29T19:08:21.571Z,10.00
2022-09-29T19:10:54.081Z,10.03
2022-09-29T19:13:21.310Z,10.11
2022-09-29T19:15:48.334Z,10.19
2022-09-29T19:18:22.610Z,10.19
2022-09-29T19:20:55.127Z,10.10
2022-09-29T19:23:23.251Z,10.18
2022-09-29T19:25:51.381Z,10.21
2022-09-29T19:28:19.948Z,10.14
2022-09-29T19:30:47.135Z,10.11
2022-09-29T19:33:20.398Z,10.10
2022-09-29T19:35:54.263Z,10.18
2022-09-29T19:38:21.383Z,10.16
2022-09-29T19:40:48.098Z,10.04
2022-09-29T19:43:15.317Z,10.05
2022-09-29T19:45:43.188Z,10.06
2022-09-29T19:48:14.451Z,10.20
2022-09-29T19:50:59.444Z,10.14
2022-09-29T19:53:25.901Z,9.94
2022-09-29T19:55:52.951Z,9.82
2022-09-29T19:58:20.065Z,9.71
2022-09-29T20:00:46.446Z,9.93
2022-09-29T20:03:13.069Z,10.02
2022-09-29T20:05:39.538Z,9.97
2022-09-29T20:08:06.308Z,10.02
2022-09-29T20:10:32.917Z,9.83
2022-09-29T20:12:59.403Z,9.75
2022-09-29T20:15:26.219Z,10.02
2022-09-29T20:17:52.999Z,9.94
2022-09-29T20:20:22.662Z,10.02
2022-09-29T20:22:49.720Z,10.09
2022-09-29T20:25:16.452Z,9.85
2022-09-29T20:27:43.427Z,9.99
2022-09-29T20:30:10.083Z,9.91
2022-09-29T20:32:36.492Z,10.00
2022-09-29T20:35:02.860Z,9.88
2022-09-29T20:37:29.240Z,9.90
2022-09-29T20:39:55.957Z,9.63
2022-09-29T20:42:22.780Z,9.67
2022-09-29T20:44:54.810Z,9.67
2022-09-29T20:47:24.904Z,9.66
2022-09-29T20:49:51.621Z,9.80
2022-09-29T20:52:18.065Z,9.78
2022-09-29T20:54:44.672Z,9.88
2022-09-29T20:57:11.194Z,9.83
2022-09-29T20:59:37.587Z,9.65
2022-09-29T21:02:04.315Z,9.61
2022-09-29T21:04:30.741Z,9.63
2022-09-29T21:06:57.259Z,9.67
2022-09-29T21:09:24.207Z,9.66
2022-09-29T21:11:53.041Z,9.65
2022-09-29T21:14:24.049Z,9.78
2022-09-29T21:16:51.580Z,9.72
2022-09-29T21:19:19.448Z,9.75
2022-09-29T21:21:45.969Z,9.69
2022-09-29T21:24:14.465Z,9.72
2022-09-29T21:26:41.351Z,9.71
2022-09-29T21:29:13.521Z,9.48
2022-09-29T21:31:40.478Z,9.37
2022-09-29T21:34:07.688Z,9.29
2022-09-29T21:36:36.599Z,9.28
2022-09-29T21:39:08.709Z,9.35
2022-09-29T21:41:41.367Z,9.14
2022-09-29T21:44:12.892Z,8.99
2022-09-29T21:46:39.901Z,9.37
2022-09-29T21:49:08.564Z,9.11
2022-09-29T21:51:41.522Z,9.13
2022-09-29T21:54:12.213Z,8.96
2022-09-29T21:56:40.515Z,9.14
2022-09-29T21:59:08.621Z,9.19
2022-09-29T22:01:35.143Z,9.24
2022-09-29T22:04:02.409Z,9.42
2022-09-29T22:06:31.362Z,9.54
2022-09-29T22:08:58.897Z,9.29
2022-09-29T22:11:31.772Z,9.33
2022-09-29T22:13:59.503Z,9.38
2022-09-29T22:16:29.127Z,9.31
2022-09-29T22:19:21.573Z,9.38
2022-09-29T22:21:43.203Z,9.39
2022-09-29T22:24:11.082Z,9.48
2022-09-29T22:26:38.895Z,9.65
2022-09-29T22:29:05.240Z,9.52
2022-09-29T22:31:32.210Z,9.52
2022-09-29T22:34:01.339Z,9.49
2022-09-29T22:36:31.205Z,9.60
2022-09-29T22:38:57.689Z,9.19
2022-09-29T22:41:24.271Z,9.37
2022-09-29T22:43:55.494Z,9.37
2022-09-29T22:46:24.206Z,9.25
2022-09-29T22:48:50.725Z,9.14
2022-09-29T22:51:17.246Z,9.31
2022-09-29T22:53:43.708Z,9.14
2022-09-29T22:56:17.347Z,9.25
2022-09-29T22:58:43.684Z,9.25
2022-09-29T23:01:13.669Z,9.20
2022-09-29T23:03:42.067Z,9.04
2022-09-29T23:06:09.663Z,8.99
2022-09-29T23:08:36.943Z,9.10
2022-09-29T23:11:06.493Z,9.07
2022-09-29T23:13:34.506Z,9.18
2022-09-29T23:16:10.946Z,9.36
2022-09-29T23:18:43.664Z,9.18
2022-09-29T23:21:11.264Z,9.05
2022-09-29T23:23:38.032Z,9.00
2022-09-29T23:26:04.850Z,8.98
2022-09-29T23:28:31.179Z,8.87
2022-09-29T23:31:03.714Z,8.96
2022-09-29T23:33:30.193Z,8.71
2022-09-29T23:36:11.897Z,8.53
2022-09-29T23:39:02.094Z,8.60
2022-09-29T23:41:30.135Z,8.43
2022-09-29T23:43:59.037Z,8.33
2022-09-29T23:46:31.561Z,8.17
2022-09-29T23:48:59.114Z,8.39
2022-09-29T23:51:26.557Z,8.31
2022-09-29T23:53:52.942Z,8.15
2022-09-29T23:56:19.405Z,8.14
2022-09-29T23:58:45.757Z,7.97
